Latest Weather Observations for Kowanyama

IDQ60801

Issued at 6:06 pm EST Tuesday 27 January 2015 (issued every 30 minutes, with the page automatically refreshed every 10 minutes)

About weather observations | Map of weather stations | Latest weather observations for QLD | Other Formats
Station Details ID: 029038 Name: KOWANYAMA AIRPORT Lat: -15.48 Lon: 141.75 Height: 9.6 m
Data from the previous 72 hours. | See also: Recent months at Kowanyama
Date/Time
EST
Temp
°C
App
Temp
°C
Dew
Point
Rel
Hum
%
Delta-T
°C
Wind Press
QNH
hPa
Press
MSL
hPa
Rain
since 9 am
mm
Dir
 
Spd
km/h
Gust
km/h
Spd
kts
Gust
kts
27/06:00pm 31.3 35.5 25.4 71 4.2 WSW 13 19 7 10 1002.4 1002.3 0.2
27/05:30pm 31.2 34.9 25.1 70 4.3 WNW 15 19 8 10 1001.9 1001.8 0.2
27/05:00pm 31.8 35.4 25.6 69 4.4 W 17 20 9 11 1001.6 1001.5 0.2
27/04:30pm 31.3 34.8 24.9 69 4.5 W 15 20 8 11 1002.0 1001.9 0.2
27/04:00pm 32.0 35.6 25.6 69 4.6 WNW 17 24 9 13 1001.9 1001.8 0.2
27/03:30pm 31.6 34.1 24.7 67 4.9 WNW 20 26 11 14 1002.3 1002.2 0.2
27/03:00pm 32.4 35.5 25.7 68 4.8 WNW 20 26 11 14 1002.6 1002.5 0.2
27/02:30pm 31.4 34.5 24.8 68 4.7 WNW 17 24 9 13 1002.9 1002.8 0.2
27/02:00pm 31.7 34.7 25.3 69 4.5 WNW 19 24 10 13 1003.1 1003.0 0.2
27/01:30pm 32.0 35.7 25.8 69 4.4 WNW 17 24 9 13 1003.6 1003.5 0.2
27/01:00pm 31.5 35.2 25.8 72 4.1 NW 17 24 9 13 1003.9 1003.8 0.2
27/12:30pm 31.0 34.7 25.8 74 3.7 WNW 17 24 9 13 1004.5 1004.4 0.2
27/12:00pm 31.0 36.0 26.0 74 3.6 NW 11 17 6 9 1004.9 1004.8 0.2
27/11:30am 29.1 33.7 25.3 80 2.7 NNW 11 15 6 8 1005.6 1005.5 0.2
27/11:00am 31.1 36.4 25.9 74 3.7 WNW 9 15 5 8 1005.7 1005.6 0.2
27/10:30am 30.1 35.5 25.4 76 3.3 NW 7 13 4 7 1006.2 1006.1 0.0
27/10:00am 29.3 34.6 25.3 79 2.8 NNW 7 13 4 7 1006.5 1006.4 0.0
27/09:30am 28.8 33.8 24.8 79 2.8 NE 7 11 4 6 1006.6 1006.5 0.0
27/09:00am 28.7 34.2 25.3 82 2.4 NE 6 9 3 5 1006.5 1006.4 6.0
27/08:30am 27.6 32.6 24.8 85 2.0 NE 7 9 4 5 1006.2 1006.1 6.0
27/08:00am 26.5 30.7 24.7 90 1.3 NNE 11 19 6 10 1005.4 1005.3 6.0
27/07:30am 25.6 30.4 25.1 97 0.3 NNE 9 13 5 7 1005.3 1005.2 6.0
27/07:00am 25.6 30.9 25.3 98 0.2 NE 7 11 4 6 1005.2 1005.1 6.0
27/06:30am 25.6 31.1 25.6 100 0.0 ENE 7 11 4 6 1005.1 1005.0 6.0
27/06:00am 25.6 31.1 25.6 100 0.0 ENE 7 9 4 5 1005.0 1004.9 6.0
27/05:30am 25.5 31.1 25.5 100 0.0 ENE 6 7 3 4 1004.6 1004.5 6.0
27/05:00am 25.7 31.3 25.7 100 0.0 SE 7 11 4 6 1004.2 1004.1 6.0
27/04:30am 25.6 31.3 25.6 100 0.0 E 6 7 3 4 1004.3 1004.2 6.0
27/04:00am 25.5 30.9 25.5 100 0.0 NE 7 9 4 5 1004.7 1004.6 6.0
27/03:30am 25.3 31.8 25.1 99 0.1 CALM 0 0 0 0 1004.8 1004.7 6.0
27/03:00am 25.2 31.7 25.0 99 0.1 CALM 0 0 0 0 1004.8 1004.7 6.0
27/02:30am 24.9 30.7 24.6 98 0.2 NE 2 9 1 5 1004.8 1004.7 6.0
27/02:00am 24.8 30.7 24.1 96 0.5 CALM 0 0 0 0 1005.1 1005.0 6.0
27/01:30am 24.8 30.7 24.1 96 0.5 CALM 0 6 0 3 1005.5 1005.4 6.0
27/01:00am 24.7 30.4 23.8 95 0.6 CALM 0 6 0 3 1006.0 1005.9 6.0
27/12:30am 24.6 30.1 23.4 93 0.8 CALM 0 6 0 3 1006.4 1006.3 6.0
27/12:00am 24.7 28.2 23.5 93 0.8 N 11 15 6 8 1007.0 1006.9 6.0
 
Date/Time
EST
Temp
°C
App
Temp
°C
Dew
Point
Rel
Hum
%
Delta-T
°C
Wind Press
QNH
hPa
Press
MSL
hPa
Rain
since 9 am
mm
Dir
 
Spd
km/h
Gust
km/h
Spd
kts
Gust
kts
26/11:30pm 26.0 30.6 24.8 93 0.8 W 9 15 5 8 1007.7 1007.6 4.0
26/11:00pm 27.0 33.6 25.2 90 1.3 CALM 0 4 0 2 1007.3 1007.2 0.2
26/10:30pm 26.9 33.0 25.1 90 1.3 E 2 7 1 4 1007.2 1007.1 0.0
26/10:00pm 27.0 33.6 25.2 90 1.3 CALM 0 0 0 0 1007.2 1007.1 0.0
26/09:30pm 27.3 32.6 24.9 87 1.7 SE 6 7 3 4 1006.9 1006.8 0.0
26/09:00pm 27.4 33.9 25.0 87 1.7 CALM 0 0 0 0 1007.0 1006.9 0.0
26/08:30pm 27.4 32.7 25.0 87 1.7 SSE 6 7 3 4 1006.6 1006.5 0.0
26/08:00pm 27.5 33.6 25.1 87 1.7 SSW 2 6 1 3 1006.6 1006.5 0.0
26/07:30pm 27.3 33.3 24.9 87 1.7 WSW 2 7 1 4 1005.8 1005.7 0.0
26/07:00pm 27.4 32.4 24.8 86 1.8 W 7 9 4 5 1005.4 1005.3 0.0
26/06:30pm 28.0 32.2 24.8 83 2.2 WNW 11 13 6 7 1005.0 1004.9 0.0
26/06:00pm 28.4 31.5 24.8 81 2.5 W 17 20 9 11 1004.5 1004.4 0.0
26/05:30pm 29.2 31.3 24.7 77 3.1 W 22 32 12 17 1004.6 1004.5 0.0
26/05:00pm 30.2 33.2 25.3 75 3.5 NW 19 28 10 15 1004.7 1004.6 0.0
26/04:30pm 30.6 32.7 24.7 71 4.1 NW 22 32 12 17 1004.3 1004.2 0.0
26/04:00pm 31.7 34.9 25.5 69 4.4 NW 19 28 10 15 1004.3 1004.2 0.0
26/03:30pm 31.3 34.5 24.9 69 4.5 WNW 17 30 9 16 1004.6 1004.5 0.0
26/03:00pm 30.4 34.8 25.7 76 3.3 WNW 13 22 7 12 1005.0 1004.9 0.0
26/02:30pm 30.3 35.0 24.9 73 3.8 NNW 9 13 5 7 1005.4 1005.3 0.0
26/02:00pm 31.5 34.7 24.9 68 4.7 NW 17 24 9 13 1005.7 1005.6 0.0
26/01:30pm 30.6 32.9 24.5 70 4.3 NW 20 33 11 18 1005.6 1005.5 0.0
26/01:00pm 31.7 35.3 23.8 63 5.5 NW 11 19 6 10 1006.4 1006.3 0.0
26/12:30pm 32.0 36.1 24.6 65 5.2 NNW 11 20 6 11 1006.8 1006.7 0.0
26/12:00pm 31.0 34.5 23.6 64 5.1 NNW 11 20 6 11 1007.1 1007.0 0.0
26/11:30am 31.6 35.9 25.5 70 4.3 NNW 13 19 7 10 1007.3 1007.2 0.0
26/11:00am 31.1 35.7 25.4 71 4.0 NNW 11 17 6 9 1007.6 1007.5 0.0
26/10:30am 30.0 35.3 25.3 76 3.3 N 7 13 4 7 1008.2 1008.1 0.0
26/10:00am 29.5 34.9 25.5 79 2.8 NE 7 13 4 7 1008.4 1008.3 0.0
26/09:30am 28.0 33.4 25.2 85 2.0 NE 6 9 3 5 1008.9 1008.8 0.0
26/09:00am 26.9 31.7 24.5 87 1.7 NE 7 11 4 6 1008.8 1008.7 16.4
26/08:30am 26.2 30.8 24.2 89 1.4 N 7 11 4 6 1008.8 1008.7 16.4
26/08:00am 26.2 30.1 24.8 92 1.0 N 13 20 7 11 1008.9 1008.8 16.4
26/07:30am 26.0 31.6 25.5 97 0.4 N 6 11 3 6 1008.7 1008.6 16.4
26/07:00am 25.7 32.3 25.2 97 0.3 CALM 0 0 0 0 1008.3 1008.2 16.4
26/06:30am 25.8 30.9 25.5 98 0.2 N 9 15 5 8 1008.0 1007.9 16.2
26/06:00am 26.1 30.1 25.6 97 0.4 N 15 24 8 13 1007.5 1007.4 16.2
26/05:30am 26.2 31.6 26.0 99 0.1 N 9 19 5 10 1007.0 1006.9 16.2
26/05:00am 26.2 32.1 26.2 100 0.0 NNE 7 9 4 5 1006.8 1006.7 16.2
26/04:30am 26.1 32.1 26.1 100 0.0 N 6 9 3 5 1006.7 1006.6 16.2
26/04:00am 26.1 31.9 26.1 100 0.0 NNE 7 11 4 6 1006.5 1006.4 16.2
26/03:30am 26.1 32.5 26.1 100 0.0 NNE 4 7 2 4 1006.5 1006.4 16.2
26/03:00am 26.2 31.7 26.2 100 0.0 NNE 9 13 5 7 1006.7 1006.6 16.2
26/02:30am 26.1 31.9 26.1 100 0.0 NNE 7 11 4 6 1006.8 1006.7 16.2
26/02:00am 26.1 32.5 26.1 100 0.0 NNE 4 7 2 4 1007.2 1007.1 16.2
26/01:30am 26.1 32.1 26.1 100 0.0 NE 6 7 3 4 1007.6 1007.5 16.2
26/01:00am 26.3 33.6 26.3 100 0.0 CALM 0 0 0 0 1008.3 1008.2 16.2
26/12:30am 26.5 32.6 26.5 100 0.0 NNE 7 9 4 5 1008.3 1008.2 16.2
26/12:00am 26.2 32.3 26.2 100 0.0 NNE 6 7 3 4 1008.3 1008.2 16.2
 
Date/Time
EST
Temp
°C
App
Temp
°C
Dew
Point
Rel
Hum
%
Delta-T
°C
Wind Press
QNH
hPa
Press
MSL
hPa
Rain
since 9 am
mm
Dir
 
Spd
km/h
Gust
km/h
Spd
kts
Gust
kts
25/11:30pm 26.2 32.0 26.0 99 0.1 NNE 7 9 4 5 1008.6 1008.5 16.2
25/11:00pm 26.1 32.9 25.6 97 0.4 CALM 0 0 0 0 1008.8 1008.7 16.2
25/10:30pm 26.4 32.3 25.9 97 0.4 N 6 7 3 4 1008.5 1008.4 16.2
25/10:00pm 26.0 32.5 25.1 95 0.6 CALM 0 0 0 0 1008.4 1008.3 16.2
25/09:30pm 26.4 33.0 25.2 93 0.8 CALM 0 0 0 0 1008.1 1008.0 16.2
25/09:00pm 26.6 33.1 25.0 91 1.1 CALM 0 4 0 2 1007.7 1007.6 16.2
25/08:30pm 26.8 32.1 25.2 91 1.1 N 7 9 4 5 1007.2 1007.1 16.2
25/08:00pm 27.4 33.1 25.6 90 1.3 NW 6 11 3 6 1007.2 1007.1 16.2
25/07:30pm 27.0 33.7 25.4 91 1.1 CALM 0 0 0 0 1007.1 1007.0 16.2
25/07:00pm 27.8 34.5 25.4 87 1.7 CALM 0 0 0 0 1006.6 1006.5 16.2
25/06:30pm 28.0 33.3 25.2 85 2.0 NNW 7 9 4 5 1006.8 1006.7 16.2
25/06:00pm 27.9 33.0 24.9 84 2.1 NW 7 11 4 6 1006.6 1006.5 16.2
25/05:30pm 27.4 31.3 24.8 86 1.8 NNW 13 17 7 9 1006.1 1006.0 16.2
25/05:00pm 29.8 33.6 25.3 77 3.2 NW 15 20 8 11 1006.1 1006.0 14.0
25/04:30pm 30.1 33.1 24.7 73 3.8 NW 17 24 9 13 1005.8 1005.7 14.0
25/04:00pm 29.6 34.6 26.0 81 2.6 NNW 11 19 6 10 1006.7 1006.6 14.0
25/03:30pm 30.0 33.2 25.5 77 3.2 NW 19 28 10 15 1007.0 1006.9 13.2
25/03:00pm 28.8 33.3 25.8 84 2.1 NW 13 19 7 10 1007.0 1006.9 13.2
25/02:30pm 29.0 33.2 26.0 84 2.1 NW 15 22 8 12 1007.2 1007.1 13.2
25/02:00pm 27.0 30.0 25.2 90 1.3 NW 19 35 10 19 1007.5 1007.4 13.2
25/01:30pm 26.5 28.5 25.1 92 1.0 WNW 24 37 13 20 1007.9 1007.8 10.8
25/01:00pm 26.7 29.3 24.9 90 1.3 NNW 20 33 11 18 1008.1 1008.0 3.4
25/12:30pm 30.0 33.0 25.5 77 3.2 NW 20 32 11 17 1008.3 1008.2 0.8
25/12:00pm 30.5 33.7 25.6 75 3.5 NW 19 33 10 18 1008.6 1008.5 0.2
25/11:30am 30.3 33.4 25.4 75 3.5 NNW 19 35 10 19 1009.0 1008.9 0.2
25/11:00am 29.8 34.3 25.8 79 2.8 NNW 13 24 7 13 1009.3 1009.2 0.2
25/10:30am 28.4 32.8 25.6 85 2.0 N 13 19 7 10 1009.6 1009.5 0.2
25/10:00am 27.8 32.8 26.0 90 1.3 N 11 17 6 9 1009.6 1009.5 0.2
25/09:30am 26.4 31.5 25.5 95 0.6 NNE 9 13 5 7 1009.8 1009.7 0.2
25/09:00am 25.7 30.3 24.8 95 0.6 NNE 9 15 5 8 1009.7 1009.6 2.6
25/08:30am 25.7 30.1 24.5 93 0.8 N 9 15 5 8 1009.7 1009.6 2.4
25/08:00am 25.6 30.1 24.6 94 0.7 N 9 15 5 8 1009.6 1009.5 2.4
25/07:30am 25.6 29.5 24.9 96 0.5 N 13 17 7 9 1009.5 1009.4 2.4
25/07:00am 25.5 29.7 24.8 96 0.5 N 11 15 6 8 1008.9 1008.8 2.4
25/06:43am 25.5 29.7 24.8 96 0.5 N 11 20 6 11 1008.8 1008.7 2.2
25/06:30am 25.6 29.5 24.9 96 0.5 NNE 13 19 7 10 1008.5 1008.4 2.2
25/06:00am 25.5 29.4 24.8 96 0.5 NNE 13 20 7 11 1008.5 1008.4 2.2
25/05:30am 25.4 29.6 24.7 96 0.5 NNE 11 19 6 10 1008.5 1008.4 2.2
25/05:00am 25.1 29.1 24.4 96 0.5 NE 11 15 6 8 1007.6 1007.5 2.2
25/04:43am 25.1 29.1 24.4 96 0.5 NE 11 17 6 9 1007.4 1007.3 2.2
25/04:30am 25.0 28.9 24.3 96 0.5 NE 11 17 6 9 1007.4 1007.3 2.2
25/04:00am 25.1 29.5 24.4 96 0.5 NE 9 15 5 8 1007.3 1007.2 2.2
25/03:30am 25.2 30.1 24.3 95 0.6 NE 6 9 3 5 1007.2 1007.1 2.2
25/03:00am 25.3 30.1 24.4 95 0.6 NE 7 11 4 6 1007.2 1007.1 2.2
25/02:30am 25.3 30.1 24.4 95 0.6 NE 7 11 4 6 1007.5 1007.4 2.2
25/02:00am 25.5 30.4 24.6 95 0.6 NE 7 9 4 5 1007.7 1007.6 2.2
25/01:30am 25.6 30.5 24.7 95 0.6 NE 7 11 4 6 1008.1 1008.0 2.2
25/01:00am 25.7 30.4 25.0 96 0.5 NE 9 13 5 7 1008.4 1008.3 2.2
25/12:30am 25.8 31.1 25.3 97 0.3 ENE 7 11 4 6 1008.7 1008.6 2.2
25/12:00am 25.9 31.2 25.2 96 0.5 ENE 7 9 4 5 1009.0 1008.9 2.2
 
Date/Time
EST
Temp
°C
App
Temp
°C
Dew
Point
Rel
Hum
%
Delta-T
°C
Wind Press
QNH
hPa
Press
MSL
hPa
Rain
since 9 am
mm
Dir
 
Spd
km/h
Gust
km/h
Spd
kts
Gust
kts
24/11:30pm 26.0 31.8 25.1 95 0.6 NE 4 7 2 4 1009.1 1009.0 2.2
24/11:00pm 26.1 32.7 25.2 95 0.6 CALM 0 0 0 0 1009.0 1008.9 2.2
24/10:30pm 26.1 32.6 25.1 94 0.7 CALM 0 0 0 0 1008.9 1008.8 2.2
24/10:00pm 26.2 32.7 25.0 93 0.8 CALM 0 0 0 0 1008.7 1008.6 2.2
24/09:30pm 26.3 32.3 24.9 92 1.0 N 2 7 1 4 1008.6 1008.5 2.2
24/09:00pm 26.4 31.1 25.0 92 1.0 N 9 15 5 8 1008.6 1008.5 2.2
24/08:47pm 26.4 31.1 25.0 92 1.0 N 9 15 5 8 1008.5 1008.4 2.2
24/08:30pm 26.4 30.8 25.0 92 1.0 N 11 19 6 10 1008.2 1008.1 2.2
24/08:23pm 26.5 30.8 24.9 91 1.1 N 11 19 6 10 1008.0 1007.9 2.2
24/08:00pm 26.5 31.2 24.9 91 1.1 NNE 9 15 5 8 1007.8 1007.7 2.2
24/07:30pm 26.5 31.6 24.9 91 1.1 NNE 7 11 4 6 1007.5 1007.4 2.2
24/07:00pm 26.5 31.4 24.7 90 1.3 N 7 11 4 6 1007.4 1007.3 2.2
24/06:30pm 26.7 31.5 24.5 88 1.5 N 7 11 4 6 1007.1 1007.0 2.2

Other Formats:

Comma delimited format used in spreadsheet applications
http://www.bom.gov.au/fwo/IDQ60801/IDQ60801.94268.axf

JavaScript Object Notation format (JSON) in row-major order
http://www.bom.gov.au/fwo/IDQ60801/IDQ60801.94268.json